Skip Navigation

Christman Field Latest Observations

Switch to metric unitsOther observation timesWeekly graphs

Date Time
MST
Temp
°F
RH
%
DewPt
°F
Wind
mph
Dir
°
Gust
mph
Dir
°
Press
in Hg
Solar
W/m^2
Prec
in
2020-09-20 23:10 56.2 60.4 42.6 3.7 257 4.5 258 0.000 0.1 0.00
2020-09-20 23:05 57.3 57.9 42.6 2.9 281 3.2 291 0.000 0.1 0.00
2020-09-20 23:00 57.8 52.6 40.6 4.0 291 5.3 303 0.000 0.1 0.00
2020-09-20 22:55 57.8 54.8 41.7 4.8 300 5.7 285 0.000 0.0 0.00
2020-09-20 22:50 58.8 54.6 42.5 4.1 285 5.7 285 0.000 0.1 0.00
2020-09-20 22:45 60.6 49.6 41.7 3.5 312 4.0 333 0.000 0.1 0.00
2020-09-20 22:40 60.8 48.1 41.1 1.9 337 3.2 351 0.000 0.1 0.00
2020-09-20 22:35 61.4 46.9 41.0 3.5 49 4.3 46 0.000 0.1 0.00
2020-09-20 22:30 61.0 46.7 40.5 3.1 29 3.9 29 0.000 0.2 0.00
2020-09-20 22:25 60.5 48.0 40.7 3.5 29 4.3 29 0.000 0.1 0.00
2020-09-20 22:20 59.4 47.8 39.6 3.0 18 5.0 353 0.000 0.1 0.00
2020-09-20 22:15 59.2 52.4 41.8 4.8 68 6.9 301 0.000 0.1 0.00
2020-09-20 22:10 60.4 50.3 41.8 6.7 305 7.5 310 0.000 0.1 0.00
2020-09-20 22:05 61.6 46.4 40.8 5.2 305 6.0 305 0.000 0.1 0.00
2020-09-20 22:00 62.3 45.4 40.9 4.7 292 5.3 285 0.000 0.0 0.00
2020-09-20 21:55 63.3 42.7 40.3 4.0 305 4.7 319 0.000 0.1 0.00
2020-09-20 21:50 62.5 42.2 39.2 4.4 319 5.0 312 0.000 0.0 0.00
2020-09-20 21:45 61.1 45.5 39.9 4.7 304 5.7 304 0.000 0.0 0.00
2020-09-20 21:40 61.0 47.9 41.1 5.7 306 7.0 313 0.000 0.0 0.00
2020-09-20 21:35 61.7 47.5 41.5 7.6 314 9.2 323 0.000 0.0 0.00
2020-09-20 21:30 61.4 46.3 40.7 9.1 324 9.8 320 0.000 0.0 0.00
2020-09-20 21:25 61.4 47.9 41.5 8.3 325 9.0 322 0.000 0.0 0.00
2020-09-20 21:20 61.7 48.9 42.3 7.6 318 8.4 316 0.000 0.0 0.00
2020-09-20 21:15 62.3 47.5 42.1 7.5 321 8.0 324 0.000 0.0 0.00
2020-09-20 21:10 63.1 46.1 42.0 8.8 334 9.7 336 0.000 0.0 0.00
2020-09-20 21:05 63.6 44.9 41.8 8.7 336 10.2 337 0.000 0.0 0.00
2020-09-20 21:00 63.3 44.4 41.3 9.5 334 11.5 334 0.000 0.0 0.00
2020-09-20 20:55 63.7 44.0 41.4 7.3 326 10.0 316 0.000 0.0 0.00
2020-09-20 20:50 64.3 43.6 41.7 5.4 334 6.9 331 0.000 0.0 0.00
2020-09-20 20:45 64.5 43.3 41.7 8.2 311 11.8 279 0.000 0.0 0.00